Domov               UVHVVR             MKGP            O straneh              
ZDRAVSTVENO VARSTVO RASTLIN
  MREŽA AGROMET. POSTAJ
 ► PROGNOSTIČNA OBVESTILA
AGROMETEOROLOŠKI PODATKI -
ARSO
OBVLADOVANJE TVEGANJ ZARADI
NEUGODNIH VREMENSKIH RAZMER
  ► NARAVNE NESREČE
  ► SUŠA/MOČA
  ► NAMAKANJE
  ► ŽLED (gozdarstvo)
KARTOGRAFSKI PRIKAZI
SPLETNE POVEZAVE
PROJEKTI IN PUBLIKACIJE

AGROMETEOROLOŠKA MREŽA: VREMENSKE POSTAJE IN FENOLOŠKA OPAZOVANJA

Pregled podatkov za lokacijo Branik, meteorološka postaja 42394

Pregled senzorjev na lokaciji

ID Ime Zadnja
vrednost
Datum
zadnje
spremembe
Tip
senzorja
2188 Temperatura 2 m ( °C) 17,72 °C 24.8.2017 08:30 50YA
2189 Relativna vlaga 2 m (% RH) 73,45 % RH 24.8.2017 08:30 50YA
2190 Omočenost lista (U) 10 U 24.8.2017 08:30 A730WET
2191 Hitrost vetra (km/h) 0,65 km/h 24.8.2017 08:30 566.2S-176 (200km/h)
2192 Padavine 0.2 mm (mm) 0 mm 24.8.2017 08:30 Rain-O-Matic
2193 Smer vetra (°) 56,38 ° 24.8.2017 08:30 566.2S-130

Pregled podatkov zadnjih 24 ur

Zap.
št.
Datum in čas Branik
Hitrost
vetra
Omočenost
lista
Padavine
0.2
mm
Relativna
vlaga
2
m
Smer
vetra
Temperatura
2
m
0 24.8.2017 07:30 0,65 10 0 73,45 56,38 17,72
1 24.8.2017 07:00 0,67 10 0 83,27 70,01 15,56
2 24.8.2017 06:30 0,93 10 0 90,7 84,8 14,09
3 24.8.2017 06:00 0,67 10 0 97,3 69,5 13,08
4 24.8.2017 05:30 0,18 10 0 97,54 67,98 12,95
5 24.8.2017 05:00 0,85 10 0 96,84 98,66 13,2
6 24.8.2017 04:30 0,64 10 0 98,47 104,73 13
7 24.8.2017 04:00 0,39 10 0 97 101,1 13,35
8 24.8.2017 03:30 0,3 10 0 97,41 97,09 13,37
9 24.8.2017 03:00 0,57 10 0 96,45 76,37 13,67
10 24.8.2017 02:30 0,22 10 0 97,09 85,46 13,64
11 24.8.2017 02:00 0,18 10 0 97,41 116,41 13,86
12 24.8.2017 01:30 0,19 10 0 99,94 83,98 13,64
13 24.8.2017 01:00 0,18 10 0 98,86 83,85 13,44
14 24.8.2017 00:30 0,19 10 0 95,14 83,75 14,37
15 24.8.2017 00:00 0,19 10 0 96,58 67,23 14,46
16 23.8.2017 23:30 0,18 10 0 98,99 79,17 14,17
17 23.8.2017 23:00 0,18 10 0 95,02 79,31 14,58
18 23.8.2017 22:30 0,18 10 0 94,63 79,59 14,89
19 23.8.2017 22:00 0,17 9 0 96,22 153,39 14,67
20 23.8.2017 21:30 0,16 8 0 93,15 153,39 15,12
21 23.8.2017 21:00 0,16 7 0 90,68 153,36 15,55
22 23.8.2017 20:30 0,16 8 0 86,96 153,28 16,21
23 23.8.2017 20:00 0,16 7 0 81,48 153,27 17,15
24 23.8.2017 19:30 0,12 1 0 70,4 153,28 19,03
25 23.8.2017 19:00 0,11 0 0 64,36 176,52 20,34
26 23.8.2017 18:30 0,11 0 0 59,97 176,86 21,57
27 23.8.2017 18:00 0,25 0 0 52,24 194,94 23,88
28 23.8.2017 17:30 0,52 0 0 44,19 237,25 26,06
29 23.8.2017 17:00 3,72 0 0 40,31 232,47 26,33
30 23.8.2017 16:30 5,01 0 0 40,33 267,27 26,29
31 23.8.2017 16:00 5,87 0 0 40,56 253,78 26,28
32 23.8.2017 15:30 7,55 0 0 37,96 265,92 27,37
33 23.8.2017 15:00 6,7 0 0 36,19 256,56 27,69
34 23.8.2017 14:30 7,06 0 0 36,97 260,62 27,82
35 23.8.2017 14:00 8,83 0 0 34,96 266,8 28,08
36 23.8.2017 13:30 4,35 0 0 32,03 258,79 28,78
37 23.8.2017 13:00 1,93 0 0 30,59 325 29,13
38 23.8.2017 12:30 0,98 0 0 28,97 111,69 29,18
39 23.8.2017 12:00 0,6 0 0 30,9 200,52 28,31
40 23.8.2017 11:30 1,5 0 0 30,91 194,02 28,08
41 23.8.2017 11:00 0,56 0 0 32,04 247,77 27,76
42 23.8.2017 10:30 0,99 0 0 33,7 337,42 26,62
43 23.8.2017 10:00 0,39 0 0 36,82 352,89 25,46
44 23.8.2017 09:30 0,11 0 0 40,43 308,06 24,32
45 23.8.2017 09:00 0,11 0 0 46,59 359,11 23,33
© 2011 Ministrstvo za kmetijstvo, gozdarstvo in prehrano. Vse pravice pridržane.